Time;durP1;ratioP1;P1;durP2;ratioP2;P2;SDS_P1;SDS_P2;PMS_P1;PMS_P2;Temp;Humidity;BMP_temperature;BMP_pressure;BME280_temperature;BME280_humidity;BME280_pressure;Samples;Min_cycle;Max_cycle;Signal;HPM_P1;HPM_P2
2021/09/08 00:00:01;;;;;;;4.97;4.50;;;20.50;99.90;;;;;;5015071;28;20300;-74
2021/09/08 00:02:27;;;;;;;5.93;5.07;;;20.40;99.90;;;;;;5015679;28;20249;-74
2021/09/08 00:04:55;;;;;;;6.40;5.18;;;20.40;99.90;;;;;;5020599;28;20203;-75
2021/09/08 00:07:22;;;;;;;6.38;4.72;;;20.40;99.90;;;;;;5030527;28;20230;-74
2021/09/08 00:09:49;;;;;;;5.18;4.68;;;20.40;99.90;;;;;;5025553;28;20604;-74
2021/09/08 00:12:15;;;;;;;8.43;5.05;;;20.40;99.90;;;;;;5024987;28;20294;-74
2021/09/08 00:14:42;;;;;;;6.20;5.20;;;20.40;99.90;;;;;;5029472;28;20258;-74
2021/09/08 00:17:09;;;;;;;6.32;5.25;;;20.30;99.90;;;;;;5033126;28;20199;-73
2021/09/08 00:19:36;;;;;;;5.43;4.93;;;20.30;99.90;;;;;;5027488;28;20279;-73
2021/09/08 00:22:04;;;;;;;5.25;4.68;;;20.30;99.90;;;;;;5023402;28;20197;-74
2021/09/08 00:24:30;;;;;;;6.80;5.50;;;20.30;99.90;;;;;;5020429;28;20255;-74
2021/09/08 00:26:57;;;;;;;7.07;5.95;;;20.30;99.90;;;;;;5023740;28;20192;-74
2021/09/08 00:29:24;;;;;;;5.82;5.10;;;20.20;99.90;;;;;;5030903;28;20188;-74
2021/09/08 00:31:50;;;;;;;5.03;4.47;;;20.20;99.90;;;;;;5019107;28;20247;-74
2021/09/08 00:34:17;;;;;;;5.15;4.65;;;20.20;99.90;;;;;;5021428;28;20697;-74
2021/09/08 00:36:44;;;;;;;4.60;4.20;;;20.20;99.90;;;;;;5027611;28;20655;-74
2021/09/08 00:39:12;;;;;;;5.78;5.18;;;20.20;99.90;;;;;;5019034;28;20654;-74
2021/09/08 00:41:39;;;;;;;6.63;5.13;;;20.20;99.90;;;;;;5033127;28;20342;-74
2021/09/08 00:44:10;;;;;;;7.78;5.72;;;20.20;99.90;;;;;;5033722;28;20677;-74
2021/09/08 00:46:37;;;;;;;5.68;5.18;;;20.10;99.90;;;;;;5033611;28;20203;-74
2021/09/08 00:49:03;;;;;;;6.25;5.65;;;20.10;99.90;;;;;;5032393;28;20230;-74
2021/09/08 00:51:30;;;;;;;5.07;4.57;;;20.10;99.90;;;;;;5025439;28;20200;-74
2021/09/08 00:53:58;;;;;;;5.60;4.97;;;20.10;99.90;;;;;;5017908;28;20704;-74
2021/09/08 00:56:29;;;;;;;5.82;4.90;;;20.10;99.90;;;;;;5019359;28;20201;-74
2021/09/08 00:58:56;;;;;;;5.85;5.28;;;20.10;99.90;;;;;;5029886;28;20192;-74
2021/09/08 01:01:23;;;;;;;6.40;5.15;;;20.10;99.90;;;;;;5025200;28;20251;-74
2021/09/08 01:03:50;;;;;;;4.72;4.28;;;20.00;99.90;;;;;;5021289;28;20257;-77
2021/09/08 01:06:17;;;;;;;5.45;4.95;;;20.00;99.90;;;;;;5028832;28;20270;-74
2021/09/08 01:08:43;;;;;;;6.03;4.50;;;20.00;99.90;;;;;;5031384;28;20188;-75
2021/09/08 01:11:10;;;;;;;5.88;5.32;;;20.00;99.90;;;;;;5026837;28;20197;-75
2021/09/08 01:13:38;;;;;;;5.10;4.60;;;20.00;99.90;;;;;;5029959;28;20632;-74
2021/09/08 01:16:06;;;;;;;5.88;5.20;;;20.00;99.90;;;;;;5031337;28;20270;-74
2021/09/08 01:18:33;;;;;;;5.43;4.70;;;20.00;99.90;;;;;;5025595;28;20290;-74
2021/09/08 01:21:00;;;;;;;5.55;5.05;;;20.00;99.90;;;;;;5017381;28;20212;-74
2021/09/08 01:23:28;;;;;;;7.55;5.50;;;20.00;99.90;;;;;;5013835;28;20251;-74
2021/09/08 01:25:54;;;;;;;5.53;4.90;;;19.90;99.90;;;;;;5013695;28;20196;-74
2021/09/08 01:28:21;;;;;;;5.90;5.28;;;19.90;99.90;;;;;;5022825;28;20196;-74
2021/09/08 01:30:53;;;;;;;6.18;5.45;;;19.90;99.90;;;;;;5028377;28;20200;-74
2021/09/08 01:33:20;;;;;;;4.57;4.18;;;19.80;99.90;;;;;;5018130;28;20220;-74
2021/09/08 01:35:47;;;;;;;5.55;5.03;;;19.80;99.90;;;;;;5023899;28;20622;-74
2021/09/08 01:38:13;;;;;;;4.60;4.20;;;19.80;99.90;;;;;;5023266;28;20192;-74
2021/09/08 01:40:42;;;;;;;5.53;5.03;;;19.80;99.90;;;;;;5020939;28;20646;-74
2021/09/08 01:43:09;;;;;;;5.65;4.85;;;19.80;99.90;;;;;;5027030;28;20593;-73
2021/09/08 01:45:38;;;;;;;5.07;4.57;;;19.80;99.90;;;;;;5031280;28;20266;-74
2021/09/08 01:48:05;;;;;;;5.88;5.25;;;19.80;99.90;;;;;;5032407;28;20200;-74
2021/09/08 01:50:32;;;;;;;5.13;4.60;;;19.70;99.90;;;;;;5023386;28;20219;-75
2021/09/08 01:52:59;;;;;;;6.38;4.63;;;19.80;99.90;;;;;;5031381;28;20195;-75
2021/09/08 01:55:26;;;;;;;6.90;4.82;;;19.70;99.90;;;;;;5022516;28;20654;-74
2021/09/08 01:57:54;;;;;;;6.00;5.22;;;19.70;99.90;;;;;;5014765;28;20247;-74
2021/09/08 02:00:20;;;;;;;5.25;4.75;;;19.70;99.90;;;;;;5025732;28;20204;-75
2021/09/08 02:02:47;;;;;;;6.20;5.60;;;19.70;99.90;;;;;;5030056;28;20246;-75
2021/09/08 02:05:15;;;;;;;6.72;5.75;;;19.70;99.90;;;;;;5031487;28;20262;-75
2021/09/08 02:07:42;;;;;;;7.20;6.47;;;19.70;99.90;;;;;;5029581;28;20299;-74
2021/09/08 02:10:10;;;;;;;5.35;4.70;;;19.70;99.90;;;;;;5018343;28;20246;-75
2021/09/08 02:12:37;;;;;;;7.28;4.80;;;19.70;99.90;;;;;;5030767;28;20204;-75
2021/09/08 02:15:06;;;;;;;4.93;4.43;;;19.60;99.90;;;;;;5031585;28;20220;-74
2021/09/08 02:17:33;;;;;;;7.13;6.43;;;19.60;99.90;;;;;;5030928;28;20531;-74
2021/09/08 02:20:00;;;;;;;5.10;4.60;;;19.60;99.90;;;;;;5027419;28;20212;-74
2021/09/08 02:22:26;;;;;;;6.70;5.90;;;19.60;99.90;;;;;;5032357;28;20235;-74
2021/09/08 02:24:53;;;;;;;6.30;5.38;;;19.60;99.90;;;;;;5027986;28;20719;-74
2021/09/08 02:27:20;;;;;;;6.28;5.30;;;19.60;99.90;;;;;;5024245;28;20231;-74
2021/09/08 02:29:46;;;;;;;4.70;4.30;;;19.60;99.90;;;;;;5025076;28;20266;-74
2021/09/08 02:32:14;;;;;;;5.18;4.43;;;19.50;99.90;;;;;;5019979;28;20193;-74
2021/09/08 02:34:41;;;;;;;5.93;5.00;;;19.60;99.90;;;;;;5016177;28;20270;-74
2021/09/08 02:37:08;;;;;;;6.75;6.05;;;19.50;99.90;;;;;;5029509;28;20184;-74
2021/09/08 02:39:35;;;;;;;7.65;6.05;;;19.60;99.90;;;;;;5025578;28;20277;-75
2021/09/08 02:42:01;;;;;;;6.38;5.65;;;19.40;99.90;;;;;;5022312;28;20267;-74
2021/09/08 02:44:28;;;;;;;6.10;5.60;;;19.40;99.90;;;;;;5019444;28;20192;-73
2021/09/08 02:46:55;;;;;;;5.65;4.85;;;19.40;99.90;;;;;;5013758;28;20196;-74
2021/09/08 02:49:23;;;;;;;6.55;5.10;;;19.50;99.90;;;;;;5012441;28;20620;-74
2021/09/08 02:51:49;;;;;;;6.63;5.53;;;19.40;99.90;;;;;;5021416;28;20223;-74
2021/09/08 02:54:16;;;;;;;6.15;5.50;;;19.40;99.90;;;;;;5025113;28;20219;-74
2021/09/08 02:56:43;;;;;;;7.10;5.80;;;19.40;99.90;;;;;;5020597;28;20192;-75
2021/09/08 02:59:09;;;;;;;5.97;5.38;;;19.40;99.90;;;;;;5018460;28;20192;-74
2021/09/08 03:01:36;;;;;;;6.00;5.40;;;19.40;99.90;;;;;;5018037;28;20274;-73
2021/09/08 03:04:03;;;;;;;7.90;4.70;;;19.40;99.90;;;;;;5025943;28;20196;-74
2021/09/08 03:06:31;;;;;;;6.35;5.75;;;19.40;99.90;;;;;;5019733;28;20243;-74
2021/09/08 03:08:58;;;;;;;6.78;6.07;;;19.30;99.90;;;;;;5019066;28;20188;-74
2021/09/08 03:11:25;;;;;;;7.28;6.13;;;19.30;99.90;;;;;;5018198;28;20191;-74
2021/09/08 03:13:51;;;;;;;6.25;5.65;;;19.30;99.90;;;;;;5020301;28;20250;-74
2021/09/08 03:16:18;;;;;;;5.53;5.03;;;19.30;99.90;;;;;;5019996;28;20196;-74
2021/09/08 03:18:45;;;;;;;5.80;5.30;;;19.30;99.90;;;;;;5026233;28;20223;-74
2021/09/08 03:21:11;;;;;;;6.13;5.53;;;19.30;99.90;;;;;;5030580;28;20212;-74
2021/09/08 03:23:39;;;;;;;7.15;5.68;;;19.30;99.90;;;;;;5031279;28;20246;-74
2021/09/08 03:26:06;;;;;;;5.93;5.32;;;19.30;99.90;;;;;;5017132;28;20205;-73
2021/09/08 03:28:33;;;;;;;5.53;5.00;;;19.20;99.90;;;;;;5026120;28;20196;-73
2021/09/08 03:30:59;;;;;;;6.03;5.25;;;19.20;99.90;;;;;;5021471;28;20193;-74
2021/09/08 03:33:26;;;;;;;8.05;6.07;;;19.20;99.90;;;;;;5029574;28;20231;-74
2021/09/08 03:35:53;;;;;;;6.63;5.93;;;19.20;99.90;;;;;;5023271;28;20228;-74
2021/09/08 03:38:20;;;;;;;6.22;5.53;;;19.10;99.90;;;;;;5019547;28;20594;-74
2021/09/08 03:40:48;;;;;;;5.75;5.15;;;19.10;99.90;;;;;;5018739;28;20196;-74
2021/09/08 03:43:14;;;;;;;12.80;5.90;;;19.10;99.90;;;;;;5026742;28;20578;-73
2021/09/08 03:45:41;;;;;;;5.88;5.35;;;19.10;99.90;;;;;;5029079;28;20247;-74
2021/09/08 03:48:08;;;;;;;6.45;5.85;;;19.10;99.90;;;;;;5030476;28;20188;-74
2021/09/08 03:50:34;;;;;;;7.13;6.32;;;19.10;99.90;;;;;;5022950;28;20254;-74
2021/09/08 03:53:01;;;;;;;7.10;6.00;;;19.10;99.90;;;;;;5035889;28;20200;-74
2021/09/08 03:55:28;;;;;;;6.63;5.57;;;19.10;99.90;;;;;;5022720;28;20266;-74
2021/09/08 03:57:56;;;;;;;6.70;5.85;;;19.10;99.90;;;;;;5020105;28;20199;-74
2021/09/08 04:00:22;;;;;;;6.05;5.55;;;19.00;99.90;;;;;;5029893;28;20246;-74
2021/09/08 04:02:49;;;;;;;6.70;6.00;;;19.00;99.90;;;;;;5014936;28;20272;-74
2021/09/08 04:05:16;;;;;;;6.53;5.63;;;19.00;99.90;;;;;;5020568;28;20196;-74
2021/09/08 04:07:42;;;;;;;5.97;5.25;;;19.00;99.90;;;;;;5035101;28;20653;-74
2021/09/08 04:10:10;;;;;;;7.82;5.47;;;19.00;99.90;;;;;;5028552;28;20200;-74
2021/09/08 04:12:37;;;;;;;6.32;5.60;;;19.00;99.90;;;;;;5026852;28;20250;-73
2021/09/08 04:15:06;;;;;;;8.20;6.40;;;19.00;99.90;;;;;;5034169;28;20262;-74
2021/09/08 04:17:33;;;;;;;5.88;5.28;;;18.90;99.90;;;;;;5030576;28;20193;-74
2021/09/08 04:19:59;;;;;;;5.82;5.25;;;18.90;99.90;;;;;;5022923;28;20219;-74
2021/09/08 04:22:26;;;;;;;6.43;5.60;;;19.00;99.90;;;;;;5030022;28;20261;-74
2021/09/08 04:24:53;;;;;;;6.72;6.05;;;18.90;99.90;;;;;;5033715;28;20577;-74
2021/09/08 04:27:19;;;;;;;5.47;4.97;;;19.00;99.90;;;;;;5032942;28;20201;-74
2021/09/08 04:29:46;;;;;;;5.53;5.03;;;18.90;99.90;;;;;;5033684;28;20200;-74
2021/09/08 04:32:14;;;;;;;7.20;5.10;;;18.90;99.90;;;;;;5032225;28;20192;-74
2021/09/08 04:34:40;;;;;;;6.43;5.65;;;18.90;99.90;;;;;;5032371;28;20220;-74
2021/09/08 04:37:07;;;;;;;5.45;4.95;;;18.90;99.90;;;;;;5031841;28;20636;-74
2021/09/08 04:39:34;;;;;;;7.40;5.63;;;18.90;99.90;;;;;;5017627;28;20281;-74
2021/09/08 04:42:01;;;;;;;6.57;5.55;;;18.80;99.90;;;;;;5019624;28;20188;-75
2021/09/08 04:44:27;;;;;;;6.22;5.22;;;18.80;99.90;;;;;;5027632;28;20730;-74
2021/09/08 04:46:54;;;;;;;6.90;5.40;;;18.80;99.90;;;;;;5032898;28;20600;-74
2021/09/08 04:49:22;;;;;;;5.72;5.05;;;18.80;99.90;;;;;;5018493;28;20654;-74
2021/09/08 04:51:49;;;;;;;6.10;5.20;;;18.80;99.90;;;;;;5029532;28;20295;-74
2021/09/08 04:54:16;;;;;;;7.65;5.72;;;18.80;99.90;;;;;;5032150;28;20196;-73
2021/09/08 04:56:42;;;;;;;7.38;5.40;;;18.80;99.90;;;;;;5026305;28;20209;-74
2021/09/08 04:59:09;;;;;;;6.07;5.45;;;18.80;99.90;;;;;;5027083;28;20196;-73
2021/09/08 05:01:36;;;;;;;8.10;5.13;;;18.80;99.90;;;;;;5025277;28;20258;-73
2021/09/08 05:04:02;;;;;;;6.40;5.78;;;18.70;99.90;;;;;;5021239;28;20197;-73
2021/09/08 05:06:30;;;;;;;5.90;5.30;;;18.70;99.90;;;;;;5033145;28;20750;-73
2021/09/08 05:08:57;;;;;;;7.03;5.40;;;18.70;99.90;;;;;;5020319;28;20542;-73
2021/09/08 05:11:24;;;;;;;6.63;5.28;;;18.70;99.90;;;;;;5022805;28;20196;-74
2021/09/08 05:13:51;;;;;;;5.78;4.80;;;18.70;99.90;;;;;;5025672;28;20254;-74
2021/09/08 05:16:17;;;;;;;6.10;5.50;;;18.70;99.90;;;;;;5031151;28;20220;-76
2021/09/08 05:18:44;;;;;;;6.30;5.70;;;18.70;99.90;;;;;;5021241;28;20204;-73
2021/09/08 05:21:11;;;;;;;7.35;5.50;;;18.70;99.90;;;;;;5023759;28;20723;-73
2021/09/08 05:23:39;;;;;;;6.57;5.40;;;18.60;99.90;;;;;;5018516;28;20211;-73
2021/09/08 05:26:06;;;;;;;6.60;5.25;;;18.60;99.90;;;;;;5014035;28;20246;-73
2021/09/08 05:28:33;;;;;;;6.90;6.28;;;18.60;99.90;;;;;;5014905;28;20247;-72
2021/09/08 05:31:00;;;;;;;5.68;5.10;;;18.60;99.90;;;;;;5025250;28;20196;-73
2021/09/08 05:33:26;;;;;;;6.38;5.28;;;18.50;99.90;;;;;;5030395;28;20250;-73
2021/09/08 05:35:53;;;;;;;5.85;5.05;;;18.50;99.90;;;;;;5016318;28;20217;-73
2021/09/08 05:38:20;;;;;;;5.10;4.38;;;18.50;99.90;;;;;;5033499;28;20196;-73
2021/09/08 05:40:49;;;;;;;5.53;5.03;;;18.50;99.90;;;;;;5022085;28;20558;-73
2021/09/08 05:43:15;;;;;;;7.18;4.80;;;18.50;99.90;;;;;;5025974;28;20657;-73
2021/09/08 05:45:43;;;;;;;5.30;4.80;;;18.50;99.90;;;;;;5033500;28;20207;-73
2021/09/08 05:48:10;;;;;;;5.78;4.85;;;18.50;99.90;;;;;;5025372;28;20200;-72
2021/09/08 05:50:36;;;;;;;6.05;5.25;;;18.50;99.90;;;;;;5029930;28;20608;-72
2021/09/08 05:53:03;;;;;;;6.32;5.00;;;18.50;99.90;;;;;;5030987;28;20238;-73
2021/09/08 05:55:30;;;;;;;5.70;5.20;;;18.60;99.90;;;;;;5029204;28;20657;-73
2021/09/08 05:57:58;;;;;;;7.47;6.78;;;18.70;99.90;;;;;;5030974;28;20196;-73
2021/09/08 06:00:25;;;;;;;6.35;5.25;;;19.00;99.90;;;;;;5026182;28;20661;-73
2021/09/08 06:02:52;;;;;;;6.60;5.00;;;19.20;99.90;;;;;;5023243;28;20681;-73
2021/09/08 06:05:19;;;;;;;6.78;5.55;;;19.40;99.90;;;;;;5030025;28;20223;-73
2021/09/08 06:07:45;;;;;;;6.63;5.55;;;19.60;99.90;;;;;;5028200;28;20200;-73
2021/09/08 06:10:17;;;;;;;6.85;5.40;;;19.70;99.90;;;;;;5027493;28;20254;-73
2021/09/08 06:12:44;;;;;;;5.80;5.20;;;20.00;99.90;;;;;;5027124;28;20193;-73
2021/09/08 06:15:12;;;;;;;6.50;5.03;;;20.10;99.90;;;;;;5014071;28;20533;-73
2021/09/08 06:17:39;;;;;;;5.90;5.30;;;20.20;99.90;;;;;;5024597;28;20289;-74
2021/09/08 06:20:07;;;;;;;7.00;5.68;;;20.30;99.90;;;;;;5020054;28;20560;-74
2021/09/08 06:22:34;;;;;;;6.88;5.80;;;20.40;99.90;;;;;;5032036;28;20219;-73
2021/09/08 06:25:01;;;;;;;7.55;6.22;;;20.50;99.90;;;;;;5020367;28;20251;-73
2021/09/08 06:27:28;;;;;;;7.60;6.18;;;20.60;99.90;;;;;;5017031;28;20196;-73
2021/09/08 06:29:55;;;;;;;5.63;5.13;;;20.70;99.90;;;;;;5020874;28;20192;-73
2021/09/08 06:32:23;;;;;;;7.18;5.88;;;20.80;99.90;;;;;;5030559;28;20262;-73
2021/09/08 06:34:49;;;;;;;5.72;5.07;;;20.90;99.90;;;;;;5029841;28;20216;-74
2021/09/08 06:37:16;;;;;;;6.93;5.47;;;21.00;99.90;;;;;;5029717;28;20262;-73
2021/09/08 06:39:43;;;;;;;5.35;4.85;;;21.00;99.90;;;;;;5024736;28;20193;-74
2021/09/08 06:42:10;;;;;;;7.30;5.90;;;21.10;99.90;;;;;;5027852;28;20250;-73
2021/09/08 06:44:37;;;;;;;6.38;5.28;;;21.20;99.90;;;;;;5029968;28;20586;-74
2021/09/08 06:47:04;;;;;;;7.15;5.88;;;21.30;99.90;;;;;;5027926;28;20196;-74
2021/09/08 06:49:32;;;;;;;6.90;5.55;;;21.40;99.90;;;;;;5030547;28;20200;-73
2021/09/08 06:51:58;;;;;;;5.75;5.15;;;21.50;99.90;;;;;;5031800;28;20192;-74
2021/09/08 06:54:25;;;;;;;6.22;5.20;;;21.60;99.90;;;;;;5029481;28;20200;-74
2021/09/08 06:56:52;;;;;;;6.65;4.80;;;21.60;99.90;;;;;;5029538;28;20230;-74
2021/09/08 06:59:19;;;;;;;5.10;4.60;;;21.70;99.90;;;;;;5031032;28;20196;-74
2021/09/08 07:01:45;;;;;;;8.80;6.27;;;21.70;99.90;;;;;;5016449;28;20920;-74
2021/09/08 07:04:12;;;;;;;6.57;5.50;;;21.80;99.90;;;;;;5014333;28;20964;-74
2021/09/08 07:06:40;;;;;;;5.10;4.63;;;21.90;99.90;;;;;;5031757;28;20500;-74
2021/09/08 07:09:09;;;;;;;5.73;5.13;;;22.00;99.90;;;;;;5030722;28;20439;-74
2021/09/08 07:11:35;;;;;;;5.83;5.27;;;22.10;99.90;;;;;;5030696;28;20459;-74
2021/09/08 07:14:02;;;;;;;8.50;5.10;;;22.20;99.90;;;;;;5021887;28;20963;-74
2021/09/08 07:16:29;;;;;;;6.20;5.40;;;22.20;99.90;;;;;;5027719;28;20485;-74
2021/09/08 07:18:56;;;;;;;8.17;5.47;;;22.30;99.90;;;;;;5024910;28;20506;-74
2021/09/08 07:21:22;;;;;;;5.03;4.63;;;22.30;99.90;;;;;;5016706;28;20454;-74
2021/09/08 07:23:50;;;;;;;6.17;5.60;;;22.40;99.90;;;;;;5031137;28;20516;-73
2021/09/08 07:26:17;;;;;;;6.27;5.60;;;22.50;99.90;;;;;;5019011;28;20481;-74
2021/09/08 07:28:44;;;;;;;6.97;6.27;;;22.50;99.90;;;;;;5027639;28;20466;-74
2021/09/08 07:31:10;;;;;;;5.43;4.93;;;22.60;99.90;;;;;;5018167;28;20467;-73
2021/09/08 07:33:37;;;;;;;4.47;4.07;;;22.60;99.90;;;;;;5026303;28;20463;-73
2021/09/08 07:36:04;;;;;;;4.80;4.13;;;22.70;99.90;;;;;;5028715;28;20509;-74
2021/09/08 07:38:31;;;;;;;9.63;6.60;;;22.80;99.90;;;;;;5020853;28;20446;-74
2021/09/08 07:40:59;;;;;;;6.70;5.50;;;22.80;99.90;;;;;;5026066;28;20582;-73
2021/09/08 07:43:26;;;;;;;6.80;5.47;;;22.80;99.90;;;;;;5019018;28;20468;-73
2021/09/08 07:45:52;;;;;;;7.23;4.67;;;22.80;99.90;;;;;;5011942;28;20452;-73
2021/09/08 07:48:20;;;;;;;6.70;4.80;;;22.90;99.90;;;;;;5011230;28;20471;-74
2021/09/08 07:50:48;;;;;;;5.83;5.00;;;23.00;99.90;;;;;;5012836;28;20475;-73
2021/09/08 07:53:14;;;;;;;6.10;5.50;;;23.00;99.90;;;;;;5015201;28;20463;-74
2021/09/08 07:55:41;;;;;;;5.73;5.17;;;23.10;99.90;;;;;;5025640;28;20475;-73
2021/09/08 07:58:09;;;;;;;5.30;4.80;;;23.10;99.90;;;;;;5027383;28;20455;-73
2021/09/08 08:00:36;;;;;;;8.00;6.70;;;23.10;99.90;;;;;;5023550;28;20504;-73
2021/09/08 08:03:04;;;;;;;6.47;5.80;;;23.20;99.90;;;;;;5025928;28;20456;-73
2021/09/08 08:05:32;;;;;;;5.53;4.90;;;23.20;99.90;;;;;;5027952;28;20451;-73
2021/09/08 08:07:59;;;;;;;6.07;5.47;;;23.10;99.90;;;;;;5023928;28;20642;-73
2021/09/08 08:10:26;;;;;;;6.20;5.30;;;23.10;99.90;;;;;;5024652;28;20463;-73
2021/09/08 08:12:53;;;;;;;6.10;5.60;;;23.10;99.90;;;;;;5033630;28;20447;-73
2021/09/08 08:15:21;;;;;;;5.93;5.40;;;23.20;99.90;;;;;;5033528;28;20548;-74
2021/09/08 08:17:48;;;;;;;6.20;5.07;;;23.20;99.90;;;;;;5020802;28;21201;-74
2021/09/08 08:20:16;;;;;;;6.10;4.97;;;23.30;99.90;;;;;;5021704;28;20830;-74
2021/09/08 08:22:43;;;;;;;6.63;6.03;;;23.30;99.90;;;;;;5027960;28;20508;-74
2021/09/08 08:25:12;;;;;;;6.70;5.47;;;23.30;99.90;;;;;;5019689;28;20517;-74
2021/09/08 08:27:39;;;;;;;5.33;4.83;;;23.40;99.90;;;;;;5027014;28;20502;-74
2021/09/08 08:30:08;;;;;;;7.53;4.60;;;23.40;99.90;;;;;;5018952;28;20512;-74
2021/09/08 08:32:36;;;;;;;8.07;5.60;;;23.40;99.90;;;;;;5030107;28;20470;-74
2021/09/08 08:35:03;;;;;;;5.83;4.53;;;23.50;99.90;;;;;;5015815;28;20464;-74
2021/09/08 08:37:30;;;;;;;6.40;5.80;;;23.50;99.90;;;;;;5039314;28;20482;-74
2021/09/08 08:39:57;;;;;;;5.77;5.27;;;23.50;99.90;;;;;;5028262;28;20508;-74
2021/09/08 08:42:27;;;;;;;6.07;5.50;;;23.60;99.90;;;;;;5033049;28;20466;-74
2021/09/08 08:44:54;;;;;;;6.33;5.40;;;23.60;99.90;;;;;;5036204;28;21041;-75
2021/09/08 08:47:22;;;;;;;5.87;5.27;;;23.60;99.90;;;;;;5026080;28;20468;-74
2021/09/08 08:49:51;;;;;;;5.87;5.27;;;23.60;99.90;;;;;;5032837;28;20787;-74
2021/09/08 08:52:18;;;;;;;7.17;5.80;;;23.70;99.90;;;;;;5025699;28;20550;-74
2021/09/08 08:54:45;;;;;;;8.27;6.00;;;23.70;99.90;;;;;;5028431;28;20456;-74
2021/09/08 08:57:13;;;;;;;5.30;4.80;;;23.70;99.90;;;;;;5030354;28;20538;-74
2021/09/08 08:59:41;;;;;;;7.97;5.70;;;23.70;99.90;;;;;;5026338;28;20445;-74
2021/09/08 09:02:19;;;;;;;6.43;5.73;;;23.70;99.90;;;;;;5032560;28;20490;-74
2021/09/08 09:04:46;;;;;;;5.47;4.97;;;23.70;99.90;;;;;;5032904;28;20450;-74
2021/09/08 09:07:26;;;;;;;6.87;6.17;;;23.80;99.90;;;;;;5018344;28;21106;-74
2021/09/08 09:09:56;;;;;;;7.80;6.27;;;23.70;99.90;;;;;;5011839;28;20465;-74
2021/09/08 09:12:26;;;;;;;7.70;6.70;;;23.80;99.90;;;;;;5012398;28;20447;-74
2021/09/08 09:14:58;;;;;;;6.63;6.00;;;23.80;99.90;;;;;;5040806;28;20462;-74
2021/09/08 09:17:27;;;;;;;8.80;6.80;;;23.80;99.90;;;;;;5025220;28;20489;-73
2021/09/08 09:19:53;;;;;;;6.77;6.10;;;23.80;99.90;;;;;;5030706;28;20475;-74
2021/09/08 09:22:25;;;;;;;8.53;6.93;;;23.70;99.90;;;;;;5038835;28;20603;-74
2021/09/08 09:24:53;;;;;;;7.33;5.93;;;23.70;99.90;;;;;;5023957;28;20951;-73
2021/09/08 09:27:20;;;;;;;7.33;5.97;;;23.70;99.90;;;;;;5032046;28;20463;-73
2021/09/08 09:29:47;;;;;;;6.73;6.03;;;23.70;99.90;;;;;;5031220;28;20517;-73
2021/09/08 09:32:14;;;;;;;6.93;6.23;;;23.70;99.90;;;;;;5029347;28;20549;-74
2021/09/08 09:34:42;;;;;;;7.60;6.90;;;23.70;99.90;;;;;;5033507;28;20447;-73
2021/09/08 09:37:10;;;;;;;7.13;6.27;;;23.70;99.90;;;;;;5039517;28;20911;-74
2021/09/08 09:39:40;;;;;;;7.10;6.33;;;23.70;99.90;;;;;;5033486;28;20460;-73
2021/09/08 09:42:08;;;;;;;7.23;6.53;;;23.70;99.90;;;;;;5035960;28;20654;-74
2021/09/08 09:44:35;;;;;;;7.87;7.07;;;23.70;99.90;;;;;;5025145;28;20517;-73
2021/09/08 09:47:02;;;;;;;7.77;6.50;;;23.70;99.90;;;;;;5027648;28;20516;-74
2021/09/08 09:49:32;;;;;;;6.33;5.73;;;23.70;99.90;;;;;;5033771;28;20683;-75
2021/09/08 09:51:59;;;;;;;7.30;5.60;;;23.70;99.90;;;;;;5025581;28;20986;-74
2021/09/08 09:54:26;;;;;;;9.43;8.07;;;23.70;99.90;;;;;;5029124;28;20493;-73
2021/09/08 09:56:55;;;;;;;9.30;7.37;;;23.60;99.90;;;;;;5028017;28;20474;-74
2021/09/08 09:59:22;;;;;;;6.47;5.80;;;23.60;99.90;;;;;;5023395;28;20541;-74
2021/09/08 10:01:48;;;;;;;7.80;6.80;;;23.60;99.90;;;;;;5025442;28;21043;-75
2021/09/08 10:04:16;;;;;;;7.80;6.60;;;23.60;99.90;;;;;;5025184;28;20575;-73
2021/09/08 10:06:44;;;;;;;8.27;7.47;;;23.60;99.90;;;;;;5029848;28;20474;-73
2021/09/08 10:09:15;;;;;;;7.50;6.70;;;23.60;99.90;;;;;;5031152;28;20450;-73
2021/09/08 10:11:47;;;;;;;8.20;7.33;;;23.60;99.90;;;;;;5023351;28;20961;-73
2021/09/08 10:14:23;;;;;;;8.10;7.17;;;23.60;99.90;;;;;;5021291;28;20554;-74
2021/09/08 10:16:50;;;;;;;8.23;6.10;;;23.60;99.90;;;;;;5028772;28;20477;-73
2021/09/08 10:19:18;;;;;;;9.80;7.90;;;23.60;99.90;;;;;;5027417;28;20479;-73
2021/09/08 10:21:46;;;;;;;8.73;7.83;;;23.60;99.90;;;;;;5033418;28;20901;-74
2021/09/08 10:24:13;;;;;;;8.53;7.73;;;23.60;99.90;;;;;;5033115;28;20482;-74
2021/09/08 10:26:40;;;;;;;7.27;6.57;;;23.60;99.90;;;;;;5027367;28;20462;-74
2021/09/08 10:29:07;;;;;;;8.77;6.67;;;23.60;99.90;;;;;;5023973;28;20457;-74
2021/09/08 10:31:38;;;;;;;7.90;7.07;;;23.60;99.90;;;;;;5032699;28;20454;-76
2021/09/08 10:34:06;;;;;;;8.57;6.93;;;23.50;99.90;;;;;;5019187;28;20856;-73
2021/09/08 10:36:35;;;;;;;9.67;7.30;;;23.60;99.90;;;;;;5025610;28;20887;-74
2021/09/08 10:39:10;;;;;;;9.30;7.43;;;23.50;99.90;;;;;;5023998;28;20451;-74
2021/09/08 10:41:42;;;;;;;8.10;7.30;;;23.50;99.90;;;;;;5028606;28;20462;-73
2021/09/08 10:44:10;;;;;;;9.57;7.90;;;23.50;99.90;;;;;;5026462;28;20451;-74
2021/09/08 10:46:55;;;;;;;8.10;7.30;;;23.50;99.90;;;;;;5034126;28;20806;-72
2021/09/08 10:49:50;;;;;;;8.57;7.73;;;23.50;99.90;;;;;;5022343;28;20463;-74
2021/09/08 10:52:48;;;;;;;7.70;7.00;;;23.50;99.90;;;;;;5026684;28;20468;-74
2021/09/08 10:55:23;;;;;;;11.13;6.97;;;23.40;99.90;;;;;;5031220;28;20806;-75
2021/09/08 10:58:01;;;;;;;12.20;9.07;;;23.50;99.90;;;;;;5020382;28;20491;-74
2021/09/08 11:00:34;;;;;;;11.63;7.30;;;23.40;99.90;;;;;;5029576;28;20477;-74
2021/09/08 11:03:03;;;;;;;8.00;7.20;;;23.50;99.90;;;;;;5026567;28;20574;-75
2021/09/08 11:05:30;;;;;;;6.90;6.20;;;23.50;99.90;;;;;;5013663;28;20530;-73
2021/09/08 11:07:56;;;;;;;9.00;8.10;;;23.50;99.90;;;;;;5029434;28;20516;-74
2021/09/08 11:10:31;;;;;;;8.93;7.13;;;23.50;99.90;;;;;;5020411;28;20454;-74
2021/09/08 11:12:59;;;;;;;8.77;6.97;;;23.40;99.90;;;;;;5021866;28;20458;-74
2021/09/08 11:15:36;;;;;;;8.53;7.67;;;23.50;99.90;;;;;;5029844;28;20536;-75
2021/09/08 11:18:06;;;;;;;7.30;6.60;;;23.50;99.90;;;;;;5015849;28;20828;-73
2021/09/08 11:20:33;;;;;;;9.03;7.10;;;23.50;99.90;;;;;;5033581;28;20506;-73
2021/09/08 11:23:01;;;;;;;7.20;6.60;;;23.50;99.90;;;;;;5034650;28;20979;-75
2021/09/08 11:25:33;;;;;;;9.83;6.37;;;23.50;99.90;;;;;;5023610;28;20462;-75
2021/09/08 11:28:00;;;;;;;7.83;7.00;;;23.50;99.90;;;;;;5036273;28;20466;-74
2021/09/08 11:30:32;;;;;;;7.77;7.07;;;23.50;99.90;;;;;;5027043;28;20486;-74
2021/09/08 11:33:00;;;;;;;7.53;6.80;;;23.50;99.90;;;;;;5018503;28;20447;-74
2021/09/08 11:35:48;;;;;;;7.40;6.70;;;23.50;99.90;;;;;;5029745;28;20459;-74
2021/09/08 11:38:17;;;;;;;8.40;7.37;;;23.50;99.90;;;;;;5023349;28;20478;-74
2021/09/08 11:40:46;;;;;;;8.50;7.70;;;23.50;99.90;;;;;;5033726;28;20461;-74
2021/09/08 11:43:13;;;;;;;8.37;7.60;;;23.50;99.90;;;;;;5035630;28;20520;-74
2021/09/08 11:45:40;;;;;;;7.90;7.07;;;23.50;99.90;;;;;;5030245;28;20458;-74
2021/09/08 11:48:07;;;;;;;7.73;6.90;;;23.50;99.90;;;;;;5032072;28;20899;-74
2021/09/08 11:50:34;;;;;;;8.50;7.20;;;23.50;99.90;;;;;;5033988;28;20459;-74
2021/09/08 11:53:03;;;;;;;8.33;7.50;;;23.50;99.90;;;;;;5027857;28;20474;-73
2021/09/08 11:55:33;;;;;;;7.70;7.00;;;23.50;99.90;;;;;;5029594;28;20550;-74
2021/09/08 11:58:19;;;;;;;8.80;6.83;;;23.50;99.90;;;;;;5040709;28;20489;-74
2021/09/08 12:00:57;;;;;;;7.30;6.60;;;23.50;99.90;;;;;;5036969;28;20470;-73
2021/09/08 12:03:24;;;;;;;7.07;6.40;;;23.50;99.90;;;;;;5019303;28;20444;-74
2021/09/08 12:05:51;;;;;;;8.33;6.70;;;23.50;99.90;;;;;;5021182;28;20509;-74
2021/09/08 12:08:21;;;;;;;8.00;7.20;;;23.50;99.90;;;;;;5016165;28;20824;-74
2021/09/08 12:10:48;;;;;;;7.53;6.83;;;23.50;99.90;;;;;;5026527;28;21112;-74
2021/09/08 12:13:30;;;;;;;7.70;6.90;;;23.50;99.90;;;;;;5027668;28;20944;-75
2021/09/08 12:15:57;;;;;;;7.90;7.10;;;23.50;99.90;;;;;;5028002;28;20455;-74
2021/09/08 12:18:24;;;;;;;6.90;6.27;;;23.50;99.90;;;;;;5031540;28;20497;-74
2021/09/08 12:20:51;;;;;;;9.17;7.97;;;23.50;99.90;;;;;;5033215;28;20485;-74
2021/09/08 12:23:28;;;;;;;7.80;6.63;;;23.50;99.90;;;;;;5036031;28;20521;-74
2021/09/08 12:26:06;;;;;;;7.63;6.43;;;23.50;99.90;;;;;;5026188;28;20474;-74
2021/09/08 12:28:32;;;;;;;10.80;7.07;;;23.50;99.90;;;;;;5020697;28;20454;-74
2021/09/08 12:31:19;;;;;;;7.37;6.67;;;23.50;99.90;;;;;;5036530;28;20511;-74
2021/09/08 12:33:56;;;;;;;7.93;7.17;;;23.50;99.90;;;;;;5026789;28;20451;-73
2021/09/08 12:36:24;;;;;;;8.03;7.27;;;23.50;99.90;;;;;;5018046;28;20446;-73
2021/09/08 12:38:53;;;;;;;6.93;6.23;;;23.50;99.90;;;;;;5030317;28;20435;-73
2021/09/08 12:41:21;;;;;;;6.60;6.00;;;23.50;99.90;;;;;;5029957;28;20467;-73
2021/09/08 12:44:00;;;;;;;7.43;6.73;;;23.50;99.90;;;;;;5028558;28;20461;-73
2021/09/08 12:46:44;;;;;;;9.30;7.10;;;23.50;99.90;;;;;;5026826;28;20470;-73
2021/09/08 12:49:13;;;;;;;7.70;6.90;;;23.50;99.90;;;;;;5024174;28;20455;-73